createdAt,value
2022-08-30T00:01:14.573Z,102397.78
2022-08-30T00:03:45.530Z,102402.88
2022-08-30T00:06:14.920Z,102399.06
2022-08-30T00:08:43.480Z,102403.38
2022-08-30T00:11:14.965Z,102400.69
2022-08-30T00:13:44.544Z,102401.47
2022-08-30T00:16:12.571Z,102394.81
2022-08-30T00:18:40.600Z,102395.38
2022-08-30T00:21:07.920Z,102398.16
2022-08-30T00:23:34.794Z,102397.16
2022-08-30T00:26:02.691Z,102401.59
2022-08-30T00:28:30.247Z,102398.16
2022-08-30T00:30:57.091Z,102393.38
2022-08-30T00:33:23.972Z,102393.44
2022-08-30T00:35:50.667Z,102393.50
2022-08-30T00:38:17.248Z,102393.56
2022-08-30T00:40:45.435Z,102384.50
2022-08-30T00:43:19.503Z,102388.28
2022-08-30T00:45:47.137Z,102381.88
2022-08-30T00:48:13.817Z,102395.38
2022-08-30T00:50:43.860Z,102391.94
2022-08-30T00:53:15.646Z,102400.56
2022-08-30T00:55:44.166Z,102402.22
2022-08-30T00:58:16.751Z,102401.41
2022-08-30T01:00:44.075Z,102404.38
2022-08-30T01:03:10.706Z,102402.28
2022-08-30T01:05:39.735Z,102408.22
2022-08-30T01:08:06.890Z,102408.72
2022-08-30T01:10:35.953Z,102405.25
2022-08-30T01:13:03.463Z,102400.09
2022-08-30T01:15:32.639Z,102402.28
2022-08-30T01:18:02.351Z,102405.53
2022-08-30T01:20:35.812Z,102407.19
2022-08-30T01:23:08.803Z,102407.19
2022-08-30T01:25:37.781Z,102406.38
2022-08-30T01:28:08.681Z,102408.00
2022-08-30T01:30:39.011Z,102408.50
2022-08-30T01:33:07.005Z,102411.47
2022-08-30T01:35:44.446Z,102399.66
2022-08-30T01:38:13.131Z,102410.69
2022-08-30T01:40:40.546Z,102408.84
2022-08-30T01:43:07.402Z,102409.41
2022-08-30T01:45:34.408Z,102416.94
2022-08-30T01:48:02.747Z,102419.63
2022-08-30T01:50:33.389Z,102424.19
2022-08-30T01:53:00.241Z,102417.22
2022-08-30T01:55:26.964Z,102421.53
2022-08-30T01:57:53.596Z,102422.91
2022-08-30T02:00:20.200Z,102419.47
2022-08-30T02:02:46.906Z,102417.66
2022-08-30T02:05:13.686Z,102416.56
2022-08-30T02:07:40.455Z,102414.19
2022-08-30T02:10:07.821Z,102420.38
2022-08-30T02:12:34.946Z,102420.97
2022-08-30T02:15:01.936Z,102416.97
2022-08-30T02:17:28.527Z,102411.63
2022-08-30T02:19:55.257Z,102411.63
2022-08-30T02:22:21.917Z,102410.06
2022-08-30T02:24:48.550Z,102413.81
2022-08-30T02:27:15.296Z,102416.53
2022-08-30T02:29:42.311Z,102412.81
2022-08-30T02:32:08.888Z,102412.03
2022-08-30T02:34:35.508Z,102413.09
2022-08-30T02:37:02.186Z,102405.03
2022-08-30T02:39:28.659Z,102413.94
2022-08-30T02:41:55.237Z,102411.28
2022-08-30T02:44:21.770Z,102405.69
2022-08-30T02:46:48.540Z,102401.16
2022-08-30T02:49:33.590Z,102418.06
2022-08-30T02:52:01.143Z,102410.59
2022-08-30T02:54:28.688Z,102403.13
2022-08-30T02:56:56.214Z,102407.16
2022-08-30T02:59:22.894Z,102397.22
2022-08-30T03:01:49.612Z,102390.81
2022-08-30T03:04:16.240Z,102388.66
2022-08-30T03:06:42.784Z,102391.34
2022-08-30T03:09:09.343Z,102387.59
2022-08-30T03:11:36.053Z,102390.81
2022-08-30T03:14:02.600Z,102390.81
2022-08-30T03:16:29.162Z,102394.56
2022-08-30T03:18:55.714Z,102380.63
2022-08-30T03:21:22.532Z,102387.09
2022-08-30T03:23:49.771Z,102385.25
2022-08-30T03:36:27.948Z,102388.06
2022-08-30T03:38:54.818Z,102391.78
2022-08-30T03:41:21.284Z,102389.69
2022-08-30T03:43:48.022Z,102387.28
2022-08-30T03:46:14.725Z,102388.91
2022-08-30T03:48:42.152Z,102388.13
2022-08-30T03:51:08.969Z,102378.50
2022-08-30T03:53:35.705Z,102390.56
2022-08-30T03:56:02.813Z,102390.03
2022-08-30T03:58:29.385Z,102389.78
2022-08-30T04:00:56.096Z,102385.50
2022-08-30T04:03:26.041Z,102378.00
2022-08-30T04:05:54.760Z,102384.19
2022-08-30T04:08:22.807Z,102385.25
2022-08-30T04:10:49.993Z,102387.69
2022-08-30T04:13:16.892Z,102386.34
2022-08-30T04:15:43.480Z,102394.38
2022-08-30T04:18:10.258Z,102391.41
2022-08-30T04:20:38.020Z,102390.84
2022-08-30T04:23:07.239Z,102390.06
2022-08-30T04:25:35.191Z,102387.63
2022-08-30T04:28:02.530Z,102386.31
2022-08-30T04:30:29.195Z,102394.34
2022-08-30T04:32:58.709Z,102395.94
2022-08-30T04:35:26.462Z,102391.16
2022-08-30T04:37:53.087Z,102396.50
2022-08-30T04:40:20.294Z,102398.97
2022-08-30T04:42:47.642Z,102405.63
2022-08-30T04:45:16.210Z,102407.00
2022-08-30T04:47:43.360Z,102405.41
2022-08-30T04:50:12.316Z,102404.56
2022-08-30T04:52:38.957Z,102407.81
2022-08-30T04:55:06.671Z,102403.00
2022-08-30T04:57:33.324Z,102404.88
2022-08-30T04:59:59.887Z,102402.75
2022-08-30T05:02:26.839Z,102412.94
2022-08-30T05:05:12.341Z,102415.06
2022-08-30T05:07:41.008Z,102414.53
2022-08-30T05:10:11.360Z,102417.22
2022-08-30T05:12:38.711Z,102416.13
2022-08-30T05:15:05.833Z,102420.41
2022-08-30T05:17:32.732Z,102416.91
2022-08-30T05:20:01.793Z,102417.75
2022-08-30T05:22:28.400Z,102426.31
2022-08-30T05:24:54.921Z,102421.19
2022-08-30T05:27:21.666Z,102426.53
2022-08-30T05:29:48.199Z,102425.97
2022-08-30T05:32:14.837Z,102430.81
2022-08-30T05:34:41.820Z,102435.59
2022-08-30T05:37:08.388Z,102439.34
2022-08-30T05:39:50.789Z,102435.34
2022-08-30T05:42:17.789Z,102439.31
2022-08-30T05:44:44.535Z,102441.44
2022-08-30T05:47:11.190Z,102447.06
2022-08-30T05:49:37.805Z,102448.13
2022-08-30T05:52:04.867Z,102458.03
2022-08-30T05:54:31.559Z,102450.53
2022-08-30T05:56:58.427Z,102456.09
2022-08-30T05:59:25.047Z,102450.69
2022-08-30T06:01:51.610Z,102450.34
2022-08-30T06:04:18.436Z,102444.94
2022-08-30T06:06:47.271Z,102447.00
2022-08-30T06:09:15.118Z,102436.44
2022-08-30T06:11:43.190Z,102447.59
2022-08-30T06:14:10.449Z,102453.16
2022-08-30T06:16:39.053Z,102440.47
2022-08-30T06:19:08.585Z,102441.19
2022-08-30T06:21:37.070Z,102447.75
2022-08-30T06:24:06.363Z,102443.38
2022-08-30T06:26:38.429Z,102450.50
2022-08-30T06:29:05.006Z,102449.63
2022-08-30T06:31:33.621Z,102445.00
2022-08-30T06:34:00.423Z,102442.47
2022-08-30T06:36:27.291Z,102444.25
2022-08-30T06:38:56.460Z,102451.66
2022-08-30T06:41:26.782Z,102456.09
2022-08-30T06:43:53.940Z,102445.81
2022-08-30T06:46:25.282Z,102447.06
2022-08-30T06:48:52.557Z,102452.91
2022-08-30T06:51:26.289Z,102453.31
2022-08-30T06:53:53.838Z,102446.00
2022-08-30T06:56:22.147Z,102451.31
2022-08-30T06:58:50.221Z,102446.59
2022-08-30T07:01:20.107Z,102442.13
2022-08-30T07:03:46.768Z,102455.13
2022-08-30T07:06:14.444Z,102454.03
2022-08-30T07:08:41.443Z,102454.03
2022-08-30T07:11:09.368Z,102450.25
2022-08-30T07:13:37.479Z,102454.25
2022-08-30T07:16:14.174Z,102450.97
2022-08-30T07:18:51.183Z,102447.69
2022-08-30T07:21:27.396Z,102449.50
2022-08-30T07:23:57.216Z,102437.06
2022-08-30T07:26:27.808Z,102446.94
2022-08-30T07:28:56.499Z,102441.47
2022-08-30T07:31:26.783Z,102449.44
2022-08-30T07:33:53.744Z,102444.50
2022-08-30T07:36:23.312Z,102447.13
2022-08-30T07:38:53.470Z,102442.94
2022-08-30T07:41:27.220Z,102448.72
2022-08-30T07:43:53.930Z,102452.13
2022-08-30T07:46:22.112Z,102450.16
2022-08-30T07:48:49.284Z,102440.06
2022-08-30T07:51:21.742Z,102447.75
2022-08-30T07:53:49.075Z,102446.88
2022-08-30T07:56:16.124Z,102444.88
2022-08-30T07:58:44.425Z,102440.94
2022-08-30T08:01:12.598Z,102448.66
2022-08-30T08:03:40.372Z,102448.53
2022-08-30T08:06:09.027Z,102451.94
2022-08-30T08:08:38.144Z,102447.53
2022-08-30T08:11:16.371Z,102459.81
2022-08-30T08:13:52.968Z,102454.59
2022-08-30T08:16:23.504Z,102462.56
2022-08-30T08:18:51.123Z,102458.22
2022-08-30T08:21:17.642Z,102459.19
2022-08-30T08:23:45.009Z,102460.69
2022-08-30T08:26:11.613Z,102463.25
2022-08-30T08:28:38.303Z,102462.03
2022-08-30T08:31:14.571Z,102460.31
2022-08-30T08:33:41.337Z,102454.84
2022-08-30T08:36:09.496Z,102463.91
2022-08-30T08:38:37.893Z,102456.81
2022-08-30T08:41:42.808Z,102461.47
2022-08-30T08:44:42.588Z,102455.94
2022-08-30T08:47:45.799Z,102456.13
2022-08-30T08:50:18.544Z,102463.28
2022-08-30T08:53:20.604Z,102450.50
2022-08-30T08:55:58.497Z,102454.31
2022-08-30T08:58:33.174Z,102455.00
2022-08-30T09:01:00.439Z,102464.56
2022-08-30T09:03:29.502Z,102459.34
2022-08-30T09:05:57.640Z,102463.22
2022-08-30T09:08:24.604Z,102456.91
2022-08-30T09:10:59.415Z,102461.88
2022-08-30T09:13:26.618Z,102460.94
2022-08-30T09:15:56.284Z,102448.41
2022-08-30T09:18:45.524Z,102449.56
2022-08-30T09:21:14.414Z,102452.41
2022-08-30T09:23:56.268Z,102452.59
2022-08-30T09:26:32.647Z,102451.66
2022-08-30T09:29:00.982Z,102456.13
2022-08-30T09:31:30.658Z,102461.38
2022-08-30T09:34:09.403Z,102456.34
2022-08-30T09:36:52.256Z,102459.34
2022-08-30T09:39:41.499Z,102453.78
2022-08-30T09:42:25.216Z,102461.78
2022-08-30T09:44:53.841Z,102452.22
2022-08-30T09:47:28.922Z,102459.41
2022-08-30T09:50:18.452Z,102459.28
2022-08-30T09:53:00.571Z,102464.38
2022-08-30T09:55:39.542Z,102465.66
2022-08-30T09:58:31.008Z,102456.91
2022-08-30T10:01:15.842Z,102455.94
2022-08-30T10:03:55.341Z,102453.41
2022-08-30T10:06:34.133Z,102452.44
2022-08-30T10:09:22.751Z,102459.00
2022-08-30T10:12:04.368Z,102454.22
2022-08-30T10:14:51.109Z,102451.03
2022-08-30T10:17:44.120Z,102456.75
2022-08-30T10:20:22.308Z,102444.19
2022-08-30T10:23:09.984Z,102445.13
2022-08-30T10:25:41.707Z,102453.72
2022-08-30T10:28:20.397Z,102457.84
2022-08-30T10:30:57.307Z,102455.78
2022-08-30T10:33:37.433Z,102457.53
2022-08-30T10:36:10.497Z,102457.69
2022-08-30T10:38:41.258Z,102445.44
2022-08-30T10:41:27.927Z,102449.09
2022-08-30T10:44:01.062Z,102454.19
2022-08-30T10:47:09.405Z,102445.91
2022-08-30T10:49:56.669Z,102443.66
2022-08-30T10:52:31.292Z,102455.41
2022-08-30T10:55:02.832Z,102440.13
2022-08-30T10:57:29.411Z,102436.78
2022-08-30T11:00:05.891Z,102448.56
2022-08-30T11:03:00.618Z,102446.94
2022-08-30T11:06:00.318Z,102450.72
2022-08-30T11:08:39.603Z,102441.94
2022-08-30T11:11:26.672Z,102433.63
2022-08-30T11:13:57.247Z,102432.66
2022-08-30T11:16:38.977Z,102434.88
2022-08-30T11:19:18.933Z,102434.34
2022-08-30T11:21:48.179Z,102432.41
2022-08-30T11:24:24.853Z,102434.13
2022-08-30T11:27:01.354Z,102443.84
2022-08-30T11:29:45.798Z,102436.34
2022-08-30T11:32:19.060Z,102429.06
2022-08-30T11:34:45.719Z,102437.66
2022-08-30T11:37:37.497Z,102427.75
2022-08-30T11:40:31.493Z,102427.44
2022-08-30T11:42:58.112Z,102432.03
2022-08-30T11:45:57.274Z,102419.72
2022-08-30T11:48:54.056Z,102419.09
2022-08-30T11:51:58.102Z,102419.34
2022-08-30T11:55:02.902Z,102421.41
2022-08-30T11:57:52.998Z,102412.53
2022-08-30T12:00:34.284Z,102412.88
2022-08-30T12:03:06.501Z,102404.06
2022-08-30T12:05:42.862Z,102402.16
2022-08-30T12:08:37.312Z,102405.78
2022-08-30T12:11:28.239Z,102407.50
2022-08-30T12:13:57.655Z,102404.91
2022-08-30T12:16:58.945Z,102399.31
2022-08-30T12:19:26.839Z,102401.47
2022-08-30T12:22:01.732Z,102396.31
2022-08-30T12:24:44.038Z,102390.97
2022-08-30T12:27:33.303Z,102393.34
2022-08-30T12:30:08.361Z,102386.47
2022-08-30T12:32:47.762Z,102385.56
2022-08-30T12:35:26.413Z,102387.28
2022-08-30T12:38:06.204Z,102389.78
2022-08-30T12:40:35.317Z,102382.56
2022-08-30T12:43:05.720Z,102390.69
2022-08-30T12:45:44.210Z,102383.91
2022-08-30T12:48:17.595Z,102388.00
2022-08-30T12:50:54.535Z,102390.16
2022-08-30T12:53:27.859Z,102393.66
2022-08-30T12:55:59.531Z,102391.06
2022-08-30T12:58:49.859Z,102389.16
2022-08-30T13:01:28.683Z,102384.50
2022-08-30T13:04:18.987Z,102383.84
2022-08-30T13:06:57.946Z,102377.19
2022-08-30T13:09:32.565Z,102369.66
2022-08-30T13:12:01.717Z,102373.72
2022-08-30T13:14:38.630Z,102361.19
2022-08-30T13:17:15.429Z,102370.25
2022-08-30T13:19:43.769Z,102359.53
2022-08-30T13:22:30.949Z,102365.25
2022-08-30T13:24:57.693Z,102358.47
2022-08-30T13:27:25.590Z,102361.75
2022-08-30T13:29:52.938Z,102367.75
2022-08-30T13:32:20.678Z,102361.50
2022-08-30T13:34:47.377Z,102359.94
2022-08-30T13:40:15.197Z,102352.00
2022-08-30T13:42:43.200Z,102353.03
2022-08-30T13:48:00.287Z,102349.66
2022-08-30T13:50:28.067Z,102343.06
2022-08-30T13:52:54.687Z,102344.66
2022-08-30T13:55:21.301Z,102346.56
2022-08-30T13:57:54.194Z,102350.09
2022-08-30T14:00:22.539Z,102340.59
2022-08-30T14:02:55.098Z,102346.56
2022-08-30T14:11:04.136Z,102337.56
2022-08-30T14:13:31.873Z,102343.19
2022-08-30T14:18:48.887Z,102344.78
2022-08-30T14:21:16.397Z,102346.38
2022-08-30T14:23:43.152Z,102339.47
2022-08-30T14:26:18.543Z,102342.16
2022-08-30T14:28:45.276Z,102341.19
2022-08-30T14:31:13.602Z,102331.91
2022-08-30T14:33:40.399Z,102340.06
2022-08-30T14:36:12.983Z,102332.25
2022-08-30T14:38:43.741Z,102326.91
2022-08-30T14:41:20.911Z,102333.13
2022-08-30T14:43:49.719Z,102322.38
2022-08-30T14:46:27.089Z,102336.75
2022-08-30T14:48:54.355Z,102333.44
2022-08-30T14:51:22.972Z,102337.53
2022-08-30T14:53:53.561Z,102328.16
2022-08-30T14:56:24.124Z,102332.34
2022-08-30T14:58:54.113Z,102334.34
2022-08-30T15:01:27.751Z,102339.31
2022-08-30T15:03:54.937Z,102335.16
2022-08-30T15:06:24.007Z,102330.50
2022-08-30T15:08:56.963Z,102330.63
2022-08-30T15:11:27.373Z,102329.03
2022-08-30T15:13:56.383Z,102321.91
2022-08-30T15:16:29.753Z,102319.53
2022-08-30T15:18:58.529Z,102316.59
2022-08-30T15:21:31.742Z,102315.69
2022-08-30T15:24:00.243Z,102321.34
2022-08-30T15:26:28.060Z,102321.00
2022-08-30T15:28:55.667Z,102309.22
2022-08-30T15:31:31.901Z,102318.06
2022-08-30T15:33:59.548Z,102312.28
2022-08-30T15:36:42.509Z,102310.03
2022-08-30T15:39:12.892Z,102306.75
2022-08-30T15:41:44.255Z,102299.50
2022-08-30T15:44:12.331Z,102292.84
2022-08-30T15:46:43.058Z,102282.78
2022-08-30T15:49:16.482Z,102293.41
2022-08-30T15:51:46.124Z,102286.94
2022-08-30T15:54:16.481Z,102299.72
2022-08-30T15:56:54.039Z,102297.94
2022-08-30T15:59:26.777Z,102299.84
2022-08-30T16:01:55.394Z,102298.16
2022-08-30T16:04:24.844Z,102297.72
2022-08-30T16:06:52.860Z,102294.53
2022-08-30T16:09:21.680Z,102290.56
2022-08-30T16:11:49.157Z,102291.81
2022-08-30T16:14:16.302Z,102293.16
2022-08-30T16:16:43.315Z,102288.06
2022-08-30T16:19:10.367Z,102294.41
2022-08-30T16:21:37.315Z,102288.28
2022-08-30T16:24:05.785Z,102290.91
2022-08-30T16:26:36.752Z,102286.28
2022-08-30T16:29:07.202Z,102287.50
2022-08-30T16:31:35.931Z,102281.19
2022-08-30T16:34:04.373Z,102282.31
2022-08-30T16:36:32.509Z,102274.50
2022-08-30T16:38:59.883Z,102272.81
2022-08-30T16:41:26.748Z,102269.16
2022-08-30T16:43:54.386Z,102278.31
2022-08-30T16:46:23.439Z,102271.28
2022-08-30T16:48:58.999Z,102281.44
2022-08-30T16:51:27.551Z,102274.09
2022-08-30T16:53:56.803Z,102269.91
2022-08-30T16:56:25.208Z,102270.34
2022-08-30T16:59:01.098Z,102269.75
2022-08-30T17:01:30.648Z,102268.06
2022-08-30T17:03:57.438Z,102272.91
2022-08-30T17:06:24.324Z,102275.03
2022-08-30T17:08:55.886Z,102267.91
2022-08-30T17:11:23.709Z,102271.25
2022-08-30T17:13:50.970Z,102270.47
2022-08-30T17:16:22.326Z,102269.22
2022-08-30T17:18:55.053Z,102271.03
2022-08-30T17:21:21.920Z,102267.72
2022-08-30T17:23:51.246Z,102274.78
2022-08-30T17:26:18.341Z,102276.56
2022-08-30T17:28:45.724Z,102273.38
2022-08-30T17:31:12.911Z,102271.50
2022-08-30T17:33:43.100Z,102274.03
2022-08-30T17:36:12.861Z,102281.38
2022-08-30T17:38:44.899Z,102275.03
2022-08-30T17:41:12.168Z,102277.63
2022-08-30T17:43:41.982Z,102285.59
2022-08-30T17:46:11.977Z,102281.97
2022-08-30T17:48:40.481Z,102287.22
2022-08-30T17:51:07.341Z,102281.69
2022-08-30T17:53:35.502Z,102285.06
2022-08-30T17:56:03.493Z,102295.41
2022-08-30T17:58:30.295Z,102292.13
2022-08-30T18:01:14.372Z,102293.56
2022-08-30T18:03:45.335Z,102295.69
2022-08-30T18:06:13.880Z,102299.81
2022-08-30T18:08:40.703Z,102303.50
2022-08-30T18:11:07.403Z,102299.88
2022-08-30T18:13:34.207Z,102308.97
2022-08-30T18:16:03.045Z,102309.63
2022-08-30T18:18:30.364Z,102304.84
2022-08-30T18:20:56.984Z,102318.25
2022-08-30T18:23:24.352Z,102312.34
2022-08-30T18:25:56.695Z,102325.75
2022-08-30T18:28:23.564Z,102319.41
2022-08-30T18:30:50.083Z,102332.75
2022-08-30T18:33:16.909Z,102325.63
2022-08-30T18:35:48.245Z,102334.72
2022-08-30T18:38:15.160Z,102330.25
2022-08-30T18:40:42.150Z,102336.31
2022-08-30T18:43:10.418Z,102337.28
2022-08-30T18:45:39.568Z,102337.13
2022-08-30T18:48:06.088Z,102328.06
2022-08-30T18:50:34.113Z,102337.47
2022-08-30T18:53:00.963Z,102336.50
2022-08-30T18:55:28.538Z,102347.16
2022-08-30T18:57:55.234Z,102344.66
2022-08-30T19:00:21.980Z,102348.31
2022-08-30T19:02:48.820Z,102348.16
2022-08-30T19:05:22.512Z,102351.00
2022-08-30T19:07:51.820Z,102349.75
2022-08-30T19:10:27.130Z,102354.97
2022-08-30T19:12:54.596Z,102361.03
2022-08-30T19:15:22.247Z,102354.69
2022-08-30T19:17:49.403Z,102355.13
2022-08-30T19:20:20.727Z,102362.28
2022-08-30T19:23:09.671Z,102360.06
2022-08-30T19:25:35.184Z,102369.09
2022-08-30T19:28:02.089Z,102364.31
2022-08-30T19:30:30.232Z,102359.88
2022-08-30T19:32:57.331Z,102363.66
2022-08-30T19:36:04.551Z,102368.44
2022-08-30T19:38:31.893Z,102359.69
2022-08-30T19:40:59.632Z,102363.00
2022-08-30T19:43:27.004Z,102363.97
2022-08-30T19:45:58.902Z,102367.13
2022-08-30T19:48:32.772Z,102376.16
2022-08-30T19:51:01.375Z,102374.56
2022-08-30T19:53:27.989Z,102377.59
2022-08-30T19:55:55.419Z,102379.00
2022-08-30T19:58:21.985Z,102377.53
2022-08-30T20:00:55.900Z,102375.00
2022-08-30T20:03:37.595Z,102373.56
2022-08-30T20:06:07.015Z,102373.06
2022-08-30T20:08:33.725Z,102372.09
2022-08-30T20:11:00.568Z,102375.69
2022-08-30T20:13:28.324Z,102382.81
2022-08-30T20:15:56.538Z,102382.16
2022-08-30T20:18:26.057Z,102381.97
2022-08-30T20:20:53.498Z,102388.78
2022-08-30T20:23:23.117Z,102374.63
2022-08-30T20:25:54.695Z,102385.91
2022-08-30T20:28:21.849Z,102391.47
2022-08-30T20:30:49.219Z,102390.81
2022-08-30T20:33:16.204Z,102384.94
2022-08-30T20:35:48.831Z,102393.94
2022-08-30T20:38:22.455Z,102400.78
2022-08-30T20:40:52.376Z,102390.28
2022-08-30T20:43:21.436Z,102392.81
2022-08-30T20:45:48.954Z,102395.50
2022-08-30T20:48:17.479Z,102395.50
2022-08-30T20:50:44.631Z,102405.47
2022-08-30T20:53:11.792Z,102405.19
2022-08-30T20:55:45.144Z,102406.31
2022-08-30T20:58:12.216Z,102400.72
2022-08-30T21:00:39.283Z,102398.81
2022-08-30T21:03:26.516Z,102402.63
2022-08-30T21:05:54.449Z,102399.06
2022-08-30T21:08:20.984Z,102402.38
2022-08-30T21:10:48.131Z,102402.06
2022-08-30T21:13:15.484Z,102410.28
2022-08-30T21:15:45.859Z,102410.88
2022-08-30T21:18:14.215Z,102405.47
2022-08-30T21:20:41.236Z,102411.69
2022-08-30T21:23:08.233Z,102410.38
2022-08-30T21:25:39.389Z,102412.59
2022-08-30T21:28:06.950Z,102418.31
2022-08-30T21:30:34.808Z,102417.31
2022-08-30T21:33:03.904Z,102419.53
2022-08-30T21:35:48.823Z,102421.72
2022-08-30T21:38:15.724Z,102420.75
2022-08-30T21:40:43.283Z,102422.44
2022-08-30T21:43:10.963Z,102427.34
2022-08-30T21:45:41.285Z,102428.44
2022-08-30T21:48:08.723Z,102423.38
2022-08-30T21:50:37.706Z,102429.06
2022-08-30T21:53:05.846Z,102432.34
2022-08-30T21:55:33.017Z,102436.94
2022-08-30T21:58:00.019Z,102441.50
2022-08-30T22:00:26.782Z,102441.00
2022-08-30T22:02:53.640Z,102439.72
2022-08-30T22:05:20.632Z,102444.13
2022-08-30T22:07:47.291Z,102441.72
2022-08-30T22:10:13.908Z,102446.13
2022-08-30T22:12:41.454Z,102435.97
2022-08-30T22:15:09.212Z,102445.44
2022-08-30T22:17:36.037Z,102439.53
2022-08-30T22:20:03.975Z,102437.19
2022-08-30T22:22:30.608Z,102439.66
2022-08-30T22:24:57.163Z,102438.38
2022-08-30T22:27:23.757Z,102443.56
2022-08-30T22:29:50.405Z,102437.69
2022-08-30T22:32:17.037Z,102440.16
2022-08-30T22:34:47.256Z,102434.59
2022-08-30T22:37:13.973Z,102441.97
2022-08-30T22:39:40.631Z,102443.88
2022-08-30T22:42:09.286Z,102446.38
2022-08-30T22:44:36.357Z,102445.88
2022-08-30T22:47:02.940Z,102450.47
2022-08-30T22:49:29.567Z,102455.34
2022-08-30T22:51:56.137Z,102449.75
2022-08-30T22:54:22.846Z,102446.25
2022-08-30T22:56:50.120Z,102444.66
2022-08-30T22:59:16.759Z,102449.31
2022-08-30T23:01:43.749Z,102451.53
2022-08-30T23:04:11.663Z,102456.41
2022-08-30T23:06:38.955Z,102453.25
2022-08-30T23:09:06.847Z,102448.72
2022-08-30T23:11:34.041Z,102455.50
2022-08-30T23:14:02.056Z,102452.03
2022-08-30T23:16:28.910Z,102457.69
2022-08-30T23:18:55.786Z,102455.91
2022-08-30T23:21:25.373Z,102454.28
2022-08-30T23:24:11.893Z,102452.50
2022-08-30T23:26:58.172Z,102459.53
2022-08-30T23:29:43.990Z,102460.44
2022-08-30T23:32:28.948Z,102458.31
2022-08-30T23:35:14.148Z,102459.41
2022-08-30T23:37:59.981Z,102455.72
2022-08-30T23:40:45.109Z,102453.63
2022-08-30T23:43:30.367Z,102450.44
2022-08-30T23:46:19.461Z,102451.00
2022-08-30T23:49:06.332Z,102446.53
2022-08-30T23:51:52.019Z,102457.84
2022-08-30T23:54:37.101Z,102462.72
2022-08-30T23:57:23.745Z,102461.13
